createdAt,value
2023-05-13T00:00:09.349Z,45.02
2023-05-13T00:03:33.378Z,45.15
2023-05-13T00:06:38.718Z,45.14
2023-05-13T00:09:42.798Z,45.10
2023-05-13T00:12:46.187Z,44.75
2023-05-13T00:15:50.028Z,44.80
2023-05-13T00:18:53.710Z,45.36
2023-05-13T00:21:59.205Z,45.36
2023-05-13T00:25:02.743Z,45.26
2023-05-13T00:28:06.694Z,45.34
2023-05-13T00:31:11.350Z,45.55
2023-05-13T00:34:15.049Z,45.55
2023-05-13T00:37:20.042Z,45.85
2023-05-13T00:40:25.869Z,45.57
2023-05-13T00:43:30.185Z,45.79
2023-05-13T00:46:34.948Z,45.82
2023-05-13T00:49:38.965Z,46.38
2023-05-13T00:52:44.990Z,46.03
2023-05-13T00:55:48.675Z,46.36
2023-05-13T00:58:52.855Z,46.32
2023-05-13T01:02:08.406Z,46.51
2023-05-13T01:05:27.933Z,46.89
2023-05-13T01:08:45.133Z,47.27
2023-05-13T01:11:56.046Z,46.76
2023-05-13T01:15:08.236Z,47.33
2023-05-13T01:18:16.720Z,46.67
2023-05-13T01:21:27.413Z,46.83
2023-05-13T01:24:31.681Z,47.51
2023-05-13T01:27:35.378Z,47.18
2023-05-13T01:30:40.553Z,47.39
2023-05-13T01:33:45.736Z,47.93
2023-05-13T01:36:51.383Z,48.25
2023-05-13T01:39:57.280Z,47.93
2023-05-13T01:43:01.100Z,48.12
2023-05-13T01:46:04.731Z,48.54
2023-05-13T01:49:10.235Z,48.48
2023-05-13T01:52:15.150Z,48.97
2023-05-13T01:55:19.031Z,48.56
2023-05-13T01:58:24.712Z,48.85
2023-05-13T02:01:28.473Z,49.19
2023-05-13T02:04:32.177Z,49.15
2023-05-13T02:07:37.648Z,49.46
2023-05-13T02:10:41.242Z,48.74
2023-05-13T02:13:45.124Z,49.34
2023-05-13T02:16:48.786Z,49.22
2023-05-13T02:19:52.811Z,49.25
2023-05-13T02:22:57.685Z,49.75
2023-05-13T02:26:01.605Z,49.75
2023-05-13T02:29:05.112Z,49.60
2023-05-13T02:32:09.471Z,49.89
2023-05-13T02:35:13.015Z,50.26
2023-05-13T02:38:18.250Z,50.23
2023-05-13T02:41:21.741Z,50.26
2023-05-13T02:44:26.248Z,50.05
2023-05-13T02:47:29.861Z,50.09
2023-05-13T02:50:39.475Z,50.20
2023-05-13T02:53:44.575Z,50.37
2023-05-13T02:56:48.673Z,50.49
2023-05-13T02:59:52.124Z,50.92
2023-05-13T03:02:56.342Z,50.64
2023-05-13T03:05:59.926Z,50.45
2023-05-13T03:09:05.293Z,51.09
2023-05-13T03:12:10.195Z,50.73
2023-05-13T03:15:15.681Z,50.71
2023-05-13T03:18:20.145Z,50.51
2023-05-13T03:21:24.130Z,50.49
2023-05-13T03:24:29.278Z,51.15
2023-05-13T03:27:33.459Z,50.63
2023-05-13T03:30:37.633Z,50.74
2023-05-13T03:33:47.512Z,51.43
2023-05-13T03:36:51.133Z,50.76
2023-05-13T03:39:56.486Z,51.31
2023-05-13T03:43:00.576Z,51.17
2023-05-13T03:46:09.017Z,51.86
2023-05-13T03:49:14.286Z,52.00
2023-05-13T03:52:23.399Z,52.19
2023-05-13T03:55:36.589Z,51.67
2023-05-13T03:58:47.308Z,51.58
2023-05-13T04:01:56.309Z,51.63
2023-05-13T04:05:07.301Z,51.64
2023-05-13T04:08:14.453Z,51.21
2023-05-13T04:11:24.199Z,51.78
2023-05-13T04:14:28.091Z,51.32
2023-05-13T04:17:31.953Z,51.40
2023-05-13T04:20:35.974Z,51.67
2023-05-13T04:23:39.848Z,52.02
2023-05-13T04:26:44.912Z,51.69
2023-05-13T04:29:48.881Z,52.10
2023-05-13T04:32:52.571Z,51.78
2023-05-13T04:35:56.967Z,51.63
2023-05-13T04:39:00.618Z,51.77
2023-05-13T04:42:06.335Z,51.53
2023-05-13T04:45:10.989Z,52.13
2023-05-13T04:48:14.872Z,51.47
2023-05-13T04:51:18.373Z,51.46
2023-05-13T04:54:22.674Z,51.19
2023-05-13T04:57:27.636Z,51.45
2023-05-13T05:00:31.481Z,50.42
2023-05-13T05:03:35.661Z,50.47
2023-05-13T05:06:39.535Z,49.99
2023-05-13T05:09:43.634Z,49.67
2023-05-13T05:12:49.341Z,49.96
2023-05-13T05:15:52.915Z,49.14
2023-05-13T05:18:56.723Z,49.61
2023-05-13T05:22:00.343Z,50.05
2023-05-13T05:25:04.618Z,49.54
2023-05-13T05:28:09.945Z,49.20
2023-05-13T05:31:17.401Z,48.94
2023-05-13T05:34:21.190Z,48.99
2023-05-13T05:37:25.950Z,49.24
2023-05-13T05:40:29.581Z,48.63
2023-05-13T05:43:34.641Z,47.88
2023-05-13T05:46:39.116Z,48.19
2023-05-13T05:49:44.541Z,47.82
2023-05-13T05:52:48.401Z,48.50
2023-05-13T05:55:53.305Z,48.31
2023-05-13T05:58:59.056Z,48.21
2023-05-13T06:02:04.495Z,48.89
2023-05-13T06:05:09.855Z,48.16
2023-05-13T06:08:15.829Z,48.65
2023-05-13T06:11:19.447Z,49.18
2023-05-13T06:14:24.578Z,48.88
2023-05-13T06:17:28.136Z,48.62
2023-05-13T06:20:31.791Z,49.09
2023-05-13T06:23:35.405Z,48.83
2023-05-13T06:26:39.131Z,49.24
2023-05-13T06:29:44.019Z,48.03
2023-05-13T06:33:00.253Z,48.13
2023-05-13T06:36:05.587Z,48.52
2023-05-13T06:39:09.789Z,48.37
2023-05-13T06:42:14.720Z,47.96
2023-05-13T06:45:25.982Z,48.24
2023-05-13T06:48:29.928Z,48.23
2023-05-13T06:51:34.893Z,48.29
2023-05-13T06:54:38.662Z,48.12
2023-05-13T06:57:45.173Z,47.61
2023-05-13T07:00:50.511Z,47.92
2023-05-13T07:03:54.444Z,47.81
2023-05-13T07:06:58.254Z,47.26
2023-05-13T07:10:01.934Z,48.08
2023-05-13T07:13:06.345Z,47.06
2023-05-13T07:16:11.356Z,47.01
2023-05-13T07:19:14.887Z,46.87
2023-05-13T07:22:18.545Z,46.73
2023-05-13T07:25:22.917Z,46.78
2023-05-13T07:28:26.673Z,46.53
2023-05-13T07:31:32.234Z,45.82
2023-05-13T07:34:35.906Z,45.59
2023-05-13T07:37:40.325Z,46.04
2023-05-13T07:40:43.980Z,45.57
2023-05-13T07:43:47.704Z,45.26
2023-05-13T07:46:53.562Z,45.08
2023-05-13T07:49:57.294Z,44.98
2023-05-13T07:53:01.132Z,44.81
2023-05-13T07:56:05.049Z,44.52
2023-05-13T07:59:08.645Z,44.22
2023-05-13T08:02:13.882Z,43.87
2023-05-13T08:05:17.648Z,43.88
2023-05-13T08:08:21.268Z,43.68
2023-05-13T08:11:25.462Z,43.14
2023-05-13T08:14:29.475Z,43.14
2023-05-13T08:17:34.817Z,42.41
2023-05-13T08:20:38.470Z,42.28
2023-05-13T08:23:46.041Z,42.34
2023-05-13T08:26:49.811Z,41.72
2023-05-13T08:29:53.831Z,41.55
2023-05-13T08:32:58.892Z,41.22
2023-05-13T08:36:02.689Z,41.54
2023-05-13T08:39:07.887Z,41.33
2023-05-13T08:42:13.204Z,40.62
2023-05-13T08:45:20.601Z,40.13
2023-05-13T08:48:26.830Z,40.12
2023-05-13T08:51:30.649Z,39.39
2023-05-13T08:54:36.144Z,39.02
2023-05-13T08:57:40.315Z,39.07
2023-05-13T09:00:44.746Z,38.84
2023-05-13T09:03:58.957Z,38.59
2023-05-13T09:07:03.084Z,39.02
2023-05-13T09:10:08.589Z,38.40
2023-05-13T09:13:14.400Z,39.04
2023-05-13T09:16:18.304Z,37.98
2023-05-13T09:19:26.099Z,37.33
2023-05-13T09:22:30.003Z,37.40
2023-05-13T09:25:34.538Z,37.70
2023-05-13T09:28:38.255Z,37.43
2023-05-13T09:31:41.978Z,36.67
2023-05-13T09:34:49.480Z,36.00
2023-05-13T09:37:53.325Z,36.15
2023-05-13T09:40:59.053Z,36.20
2023-05-13T09:44:05.115Z,36.00
2023-05-13T09:47:12.203Z,35.82
2023-05-13T09:50:17.394Z,36.02
2023-05-13T09:53:21.731Z,36.05
2023-05-13T09:56:25.939Z,36.04
2023-05-13T09:59:30.056Z,35.53
2023-05-13T10:02:35.414Z,35.29
2023-05-13T10:05:40.830Z,35.04
2023-05-13T10:08:47.802Z,35.40
2023-05-13T10:11:51.265Z,35.21
2023-05-13T10:14:57.029Z,35.16
2023-05-13T10:18:01.756Z,35.29
2023-05-13T10:21:07.715Z,34.80
2023-05-13T10:24:12.005Z,34.49
2023-05-13T10:27:16.970Z,34.09
2023-05-13T10:30:26.208Z,34.21
2023-05-13T10:33:30.111Z,34.43
2023-05-13T10:36:59.019Z,33.84
2023-05-13T10:40:44.208Z,33.38
2023-05-13T10:43:47.948Z,33.64
2023-05-13T10:46:52.107Z,33.08
2023-05-13T10:49:56.292Z,33.41
2023-05-13T10:53:01.930Z,32.49
2023-05-13T10:56:07.934Z,32.27
2023-05-13T10:59:13.965Z,32.39
2023-05-13T11:02:23.452Z,31.32
2023-05-13T11:05:27.704Z,31.87
2023-05-13T11:08:44.644Z,31.17
2023-05-13T11:11:50.589Z,31.79
2023-05-13T11:14:57.609Z,31.78
2023-05-13T11:18:01.551Z,31.35
2023-05-13T11:21:07.147Z,30.67
2023-05-13T11:24:18.967Z,31.35
2023-05-13T11:27:22.934Z,30.68
2023-05-13T11:30:28.562Z,30.81
2023-05-13T11:34:13.878Z,31.23
2023-05-13T11:37:18.404Z,31.48
2023-05-13T11:40:27.820Z,31.50
2023-05-13T11:43:34.691Z,31.33
2023-05-13T11:46:38.713Z,31.90
2023-05-13T11:49:44.781Z,32.09
2023-05-13T11:52:53.618Z,31.33
2023-05-13T11:56:11.213Z,30.74
2023-05-13T11:59:15.681Z,31.56
2023-05-13T12:02:23.229Z,31.73
2023-05-13T12:05:27.726Z,31.74
2023-05-13T12:08:31.824Z,31.41
2023-05-13T12:11:37.441Z,31.22
2023-05-13T12:14:42.261Z,30.80
2023-05-13T12:17:47.293Z,30.59
2023-05-13T12:20:51.549Z,30.68
2023-05-13T12:23:54.958Z,30.73
2023-05-13T12:27:08.670Z,30.64
2023-05-13T12:30:16.639Z,30.74
2023-05-13T12:33:22.785Z,30.23
2023-05-13T12:36:33.852Z,30.59
2023-05-13T12:39:38.049Z,29.53
2023-05-13T12:42:45.971Z,28.89
2023-05-13T12:45:55.678Z,28.84
2023-05-13T12:49:01.961Z,28.47
2023-05-13T12:52:06.031Z,27.99
2023-05-13T12:55:12.320Z,27.99
2023-05-13T12:58:17.512Z,29.03
2023-05-13T13:01:22.113Z,28.56
2023-05-13T13:04:26.011Z,28.89
2023-05-13T13:07:29.915Z,29.66
2023-05-13T13:10:33.640Z,29.89
2023-05-13T13:13:39.460Z,30.31
2023-05-13T13:16:43.342Z,30.25
2023-05-13T13:19:46.706Z,30.45
2023-05-13T13:22:50.395Z,30.20
2023-05-13T13:25:53.857Z,30.77
2023-05-13T13:28:59.211Z,31.06
2023-05-13T13:32:02.895Z,31.03
2023-05-13T13:35:07.726Z,31.15
2023-05-13T13:38:11.333Z,31.31
2023-05-13T13:41:14.961Z,31.31
2023-05-13T13:44:19.776Z,31.66
2023-05-13T13:47:23.586Z,28.71
2023-05-13T13:50:27.413Z,25.17
2023-05-13T13:53:31.074Z,25.25
2023-05-13T13:56:36.267Z,25.74
2023-05-13T13:59:41.671Z,25.74
2023-05-13T14:02:45.671Z,27.79
2023-05-13T14:05:50.147Z,27.33
2023-05-13T14:08:54.641Z,26.14
2023-05-13T14:11:58.429Z,26.42
2023-05-13T14:15:03.282Z,26.86
2023-05-13T14:18:07.992Z,25.35
2023-05-13T14:21:11.445Z,21.86
2023-05-13T14:24:15.963Z,19.95
2023-05-13T14:27:19.493Z,17.97
2023-05-13T14:30:25.213Z,17.07
2023-05-13T14:33:28.625Z,18.33
2023-05-13T14:36:32.767Z,19.99
2023-05-13T14:39:36.384Z,20.16
2023-05-13T14:42:40.646Z,22.38
2023-05-13T14:45:45.960Z,23.74
2023-05-13T14:48:49.898Z,24.93
2023-05-13T14:51:53.313Z,24.65
2023-05-13T14:54:57.225Z,23.98
2023-05-13T14:58:01.259Z,23.68
2023-05-13T15:01:06.633Z,23.62
2023-05-13T15:04:10.442Z,21.89
2023-05-13T15:07:14.473Z,19.85
2023-05-13T15:10:18.258Z,19.63
2023-05-13T15:13:22.144Z,21.28
2023-05-13T15:16:27.053Z,23.18
2023-05-13T15:19:30.726Z,24.58
2023-05-13T15:22:34.445Z,25.49
2023-05-13T15:25:38.354Z,26.04
2023-05-13T15:28:42.083Z,24.89
2023-05-13T15:31:50.586Z,23.50
2023-05-13T15:34:54.173Z,23.10
2023-05-13T15:37:58.460Z,24.12
2023-05-13T15:41:04.056Z,25.68
2023-05-13T15:44:08.274Z,25.20
2023-05-13T15:47:13.284Z,23.12
2023-05-13T15:50:18.799Z,21.59
2023-05-13T15:53:22.221Z,22.52
2023-05-13T15:56:26.055Z,23.20
2023-05-13T15:59:29.427Z,23.89
2023-05-13T16:02:39.022Z,25.05
2023-05-13T16:05:42.469Z,24.68
2023-05-13T16:08:46.191Z,23.48
2023-05-13T16:11:49.814Z,21.78
2023-05-13T16:14:53.552Z,20.56
2023-05-13T16:17:58.394Z,19.87
2023-05-13T16:21:02.270Z,19.27
2023-05-13T16:24:07.044Z,19.85
2023-05-13T16:27:10.772Z,19.24
2023-05-13T16:30:14.718Z,19.49
2023-05-13T16:33:19.838Z,19.28
2023-05-13T16:36:23.891Z,19.00
2023-05-13T16:39:27.610Z,19.78
2023-05-13T16:42:31.223Z,20.13
2023-05-13T16:45:34.945Z,19.73
2023-05-13T16:48:39.773Z,20.26
2023-05-13T16:51:43.417Z,20.18
2023-05-13T16:54:46.845Z,20.77
2023-05-13T16:57:50.930Z,20.84
2023-05-13T17:00:55.134Z,21.18
2023-05-13T17:04:01.748Z,21.42
2023-05-13T17:07:05.215Z,21.78
2023-05-13T17:10:10.134Z,22.01
2023-05-13T17:13:13.765Z,22.25
2023-05-13T17:16:17.577Z,22.52
2023-05-13T17:19:22.421Z,22.75
2023-05-13T17:22:26.290Z,22.82
2023-05-13T17:25:29.756Z,23.53
2023-05-13T17:28:33.984Z,24.33
2023-05-13T17:31:37.671Z,24.43
2023-05-13T17:34:43.022Z,25.96
2023-05-13T17:37:46.424Z,26.94
2023-05-13T17:40:51.433Z,27.70
2023-05-13T17:43:55.109Z,28.40
2023-05-13T17:46:58.908Z,28.92
2023-05-13T17:50:04.104Z,29.82
2023-05-13T17:53:07.957Z,30.53
2023-05-13T17:56:11.460Z,30.90
2023-05-13T17:59:15.096Z,30.93
2023-05-13T18:02:18.506Z,31.44
2023-05-13T18:05:23.984Z,32.14
2023-05-13T18:08:27.530Z,32.51
2023-05-13T18:11:31.684Z,32.74
2023-05-13T18:14:35.286Z,33.27
2023-05-13T18:17:38.987Z,33.22
2023-05-13T18:20:43.786Z,33.68
2023-05-13T18:23:47.419Z,33.64
2023-05-13T18:26:51.003Z,33.91
2023-05-13T18:29:54.774Z,34.40
2023-05-13T18:32:58.201Z,35.18
2023-05-13T18:36:03.598Z,35.51
2023-05-13T18:39:08.232Z,35.65
2023-05-13T18:42:11.971Z,35.71
2023-05-13T18:45:15.871Z,36.27
2023-05-13T18:48:19.658Z,36.64
2023-05-13T18:51:24.486Z,36.93
2023-05-13T18:54:29.266Z,37.28
2023-05-13T18:57:32.847Z,37.48
2023-05-13T19:00:37.432Z,37.87
2023-05-13T19:03:40.885Z,38.15
2023-05-13T19:06:46.279Z,38.70
2023-05-13T19:09:49.891Z,38.82
2023-05-13T19:12:53.635Z,39.22
2023-05-13T19:15:57.611Z,39.23
2023-05-13T19:19:01.332Z,39.25
2023-05-13T19:22:06.510Z,39.93
2023-05-13T19:25:10.952Z,40.45
2023-05-13T19:28:14.746Z,40.42
2023-05-13T19:31:18.522Z,40.98
2023-05-13T19:34:21.996Z,41.20
2023-05-13T19:37:27.507Z,41.24
2023-05-13T19:40:30.976Z,41.37
2023-05-13T19:43:34.797Z,41.78
2023-05-13T19:46:38.356Z,42.04
2023-05-13T19:49:42.186Z,42.25
2023-05-13T19:52:46.978Z,41.96
2023-05-13T19:55:50.737Z,41.89
2023-05-13T19:58:54.217Z,42.39
2023-05-13T20:01:58.010Z,43.40
2023-05-13T20:05:01.421Z,42.62
2023-05-13T20:08:06.637Z,43.26
2023-05-13T20:11:10.024Z,43.43
2023-05-13T20:14:13.776Z,43.80
2023-05-13T20:17:21.218Z,44.34
2023-05-13T20:20:25.058Z,44.31
2023-05-13T20:23:29.999Z,44.62
2023-05-13T20:26:34.730Z,44.69
2023-05-13T20:29:39.673Z,44.85
2023-05-13T20:32:43.390Z,44.99
2023-05-13T20:35:47.400Z,45.49
2023-05-13T20:38:52.436Z,45.78
2023-05-13T20:41:56.562Z,45.64
2023-05-13T20:45:00.466Z,45.40
2023-05-13T20:48:03.911Z,46.03
2023-05-13T20:51:07.836Z,46.19
2023-05-13T20:54:13.345Z,46.08
2023-05-13T20:57:17.136Z,45.73
2023-05-13T21:00:21.471Z,46.36
2023-05-13T21:03:25.629Z,46.12
2023-05-13T21:06:29.542Z,46.57
2023-05-13T21:09:35.018Z,47.82
2023-05-13T21:12:38.893Z,46.94
2023-05-13T21:15:42.544Z,47.25
2023-05-13T21:18:46.022Z,47.90
2023-05-13T21:21:50.091Z,47.37
2023-05-13T21:24:54.903Z,47.71
2023-05-13T21:27:58.626Z,48.56
2023-05-13T21:31:02.284Z,48.11
2023-05-13T21:34:06.197Z,48.56
2023-05-13T21:37:09.546Z,48.89
2023-05-13T21:40:15.270Z,48.67
2023-05-13T21:43:18.688Z,49.06
2023-05-13T21:46:22.324Z,49.08
2023-05-13T21:49:25.758Z,48.99
2023-05-13T21:52:29.505Z,49.19
2023-05-13T21:55:35.088Z,49.32
2023-05-13T21:58:38.921Z,49.78
2023-05-13T22:01:46.797Z,50.21
2023-05-13T22:04:52.374Z,50.62
2023-05-13T22:07:55.764Z,50.67
2023-05-13T22:11:01.292Z,51.03
2023-05-13T22:14:05.103Z,50.98
2023-05-13T22:17:10.325Z,51.68
2023-05-13T22:20:14.460Z,51.62
2023-05-13T22:23:18.389Z,51.71
2023-05-13T22:26:23.206Z,52.19
2023-05-13T22:29:27.079Z,51.83
2023-05-13T22:32:30.450Z,52.36
2023-05-13T22:35:36.486Z,52.15
2023-05-13T22:38:40.656Z,52.45
2023-05-13T22:41:45.813Z,52.51
2023-05-13T22:44:49.218Z,52.32
2023-05-13T22:47:53.120Z,52.69
2023-05-13T22:50:58.398Z,52.69
2023-05-13T22:54:02.338Z,52.21
2023-05-13T22:57:07.235Z,52.71
2023-05-13T23:00:12.978Z,52.37
2023-05-13T23:03:16.393Z,52.26
2023-05-13T23:06:20.221Z,52.97
2023-05-13T23:09:23.625Z,52.88
2023-05-13T23:12:28.768Z,52.51
2023-05-13T23:15:32.185Z,52.98
2023-05-13T23:18:35.875Z,52.91
2023-05-13T23:21:39.299Z,53.57
2023-05-13T23:24:43.036Z,52.89
2023-05-13T23:27:48.055Z,53.57
2023-05-13T23:30:55.026Z,53.77
2023-05-13T23:33:58.608Z,53.97
2023-05-13T23:37:02.596Z,54.45
2023-05-13T23:40:08.046Z,54.44
2023-05-13T23:43:13.209Z,54.84
2023-05-13T23:46:16.723Z,54.52
2023-05-13T23:49:22.563Z,55.04
2023-05-13T23:52:25.998Z,54.73
2023-05-13T23:55:29.891Z,54.94
2023-05-13T23:58:34.837Z,55.14
